Allison, Texas
Current Conditions -  °F | °C
As of 1:55 PM on Friday 19 Dec 2014 (Local Time) from KHHF Reporting Station
Overcast Overcast  
Wind Chill: 38°   Ceiling: 900
Heat Index: 42°   Visibility: 10mi
Dew Point: 40°   Wind: 6mph
Humidity: 93%   Direction: 250°WSW
Pressure: 30.15"   Gusts: NA
Location:  35.61°N, 100.1°W
Report Text: KHHF 191955Z AUTO 25005KT 10SM OVC009 06/05 A3015 RMK AO2 T00550045
Loading
Personal Weather Stations






























Interactive Weather Map New forecast layout! Learn more

10-Day Weather Forecast

Advertisements
Track Severe Weather on mobile